Details for TUI fly (Netherlands) at EHAM




Go Back


Latest METAR
Local Time

EHAM 061655Z 25012KT 220V280 9999 -RA FEW007 SCT048 13/11 Q1021 NOSIG
06/04/2020, 19:34:11

Description
Results
TUI fly (Netherlands) Logo
Number of Pilots based at EHAM
2 Pilots Based here
Number of TUI fly (Netherlands) Flights Departed from EHAM
2 Flights Departed
Number of TUI fly (Netherlands) Flights Arrived at EHAM
0 Flights Arrived
Number of TUI fly (Netherlands) Schedules Departing from EHAM
75 Schedules
Number of TUI fly (Netherlands) Schedules Arriving at EHAM
63 Schedules
Number of TUI fly (Netherlands) Schedules Departing from EHAM availible today
8 Schedules Today
Number of TUI fly (Netherlands) Schedules Arriving at EHAM availible today
7 Schedules Today
Average Landing Rate at EHAM
-211 fpm
TUI fly (Netherlands) Average Landing Rate at EHAM
0 fpm
Total Fuel Purchased at EHAM by TUI fly (Netherlands)
23,687.62 kgs / 52,221.73 lbs

Pilots Based at EHAM


Pilot ID
Pilot Name
Pilot Rank
No. of Flights
No. of Flying Hours
Youri Rutten
87
206.43
James Hatcher
169
779.06